sensor_id;sensor_type;location;lat;lon;timestamp;temperature;humidity
46400;DHT22;32104;50.838;4.388;2024-02-15T00:01:53;13.80;99.90
46400;DHT22;32104;50.838;4.388;2024-02-15T00:04:27;13.80;99.90
46400;DHT22;32104;50.838;4.388;2024-02-15T00:06:54;14.00;99.90
46400;DHT22;32104;50.838;4.388;2024-02-15T00:09:20;14.00;99.90
46400;DHT22;32104;50.838;4.388;2024-02-15T00:11:49;14.00;99.90
46400;DHT22;32104;50.838;4.388;2024-02-15T00:14:17;14.00;99.90
46400;DHT22;32104;50.838;4.388;2024-02-15T00:16:44;14.00;99.90
46400;DHT22;32104;50.838;4.388;2024-02-15T00:19:11;14.00;99.90
46400;DHT22;32104;50.838;4.388;2024-02-15T00:22:03;14.00;99.90
46400;DHT22;32104;50.838;4.388;2024-02-15T00:24:49;14.00;99.90
46400;DHT22;32104;50.838;4.388;2024-02-15T00:27:34;14.10;99.90
46400;DHT22;32104;50.838;4.388;2024-02-15T00:30:05;14.10;99.90
46400;DHT22;32104;50.838;4.388;2024-02-15T00:32:34;14.00;99.90
46400;DHT22;32104;50.838;4.388;2024-02-15T00:35:00;14.00;99.90
46400;DHT22;32104;50.838;4.388;2024-02-15T00:37:28;14.10;99.90
46400;DHT22;32104;50.838;4.388;2024-02-15T00:39:55;14.00;99.90
46400;DHT22;32104;50.838;4.388;2024-02-15T00:42:35;14.00;99.90
46400;DHT22;32104;50.838;4.388;2024-02-15T00:45:04;14.00;99.90
46400;DHT22;32104;50.838;4.388;2024-02-15T00:47:40;13.90;99.90
46400;DHT22;32104;50.838;4.388;2024-02-15T00:50:13;13.90;99.90
46400;DHT22;32104;50.838;4.388;2024-02-15T00:52:49;14.00;99.90
46400;DHT22;32104;50.838;4.388;2024-02-15T00:55:19;13.90;99.90
46400;DHT22;32104;50.838;4.388;2024-02-15T00:57:46;13.90;99.90
46400;DHT22;32104;50.838;4.388;2024-02-15T01:00:15;13.90;99.90
46400;DHT22;32104;50.838;4.388;2024-02-15T01:02:45;13.80;99.90
46400;DHT22;32104;50.838;4.388;2024-02-15T01:05:11;13.80;99.90
46400;DHT22;32104;50.838;4.388;2024-02-15T01:07:37;13.90;99.90
46400;DHT22;32104;50.838;4.388;2024-02-15T01:10:09;13.80;99.90
46400;DHT22;32104;50.838;4.388;2024-02-15T01:12:41;13.90;99.90
46400;DHT22;32104;50.838;4.388;2024-02-15T01:15:07;13.90;99.90
46400;DHT22;32104;50.838;4.388;2024-02-15T01:17:34;13.90;99.90
46400;DHT22;32104;50.838;4.388;2024-02-15T01:20:03;13.90;99.90
46400;DHT22;32104;50.838;4.388;2024-02-15T01:22:39;14.10;99.90
46400;DHT22;32104;50.838;4.388;2024-02-15T01:25:07;14.00;99.90
46400;DHT22;32104;50.838;4.388;2024-02-15T01:27:36;14.10;99.90
46400;DHT22;32104;50.838;4.388;2024-02-15T01:30:04;14.20;99.90
46400;DHT22;32104;50.838;4.388;2024-02-15T01:32:30;14.30;99.90
46400;DHT22;32104;50.838;4.388;2024-02-15T01:34:56;14.20;99.90
46400;DHT22;32104;50.838;4.388;2024-02-15T01:37:22;14.30;99.90
46400;DHT22;32104;50.838;4.388;2024-02-15T01:39:51;14.20;99.90
46400;DHT22;32104;50.838;4.388;2024-02-15T01:42:19;14.30;99.90
46400;DHT22;32104;50.838;4.388;2024-02-15T01:44:45;14.30;99.90
46400;DHT22;32104;50.838;4.388;2024-02-15T01:47:13;14.20;99.90
46400;DHT22;32104;50.838;4.388;2024-02-15T01:49:41;14.10;99.90
46400;DHT22;32104;50.838;4.388;2024-02-15T01:52:08;14.00;99.90
46400;DHT22;32104;50.838;4.388;2024-02-15T01:54:40;14.00;99.90
46400;DHT22;32104;50.838;4.388;2024-02-15T01:57:06;14.10;99.90
46400;DHT22;32104;50.838;4.388;2024-02-15T01:59:42;14.00;99.90
46400;DHT22;32104;50.838;4.388;2024-02-15T02:02:09;13.90;99.90
46400;DHT22;32104;50.838;4.388;2024-02-15T02:04:39;13.90;99.90
46400;DHT22;32104;50.838;4.388;2024-02-15T02:07:09;13.90;99.90
46400;DHT22;32104;50.838;4.388;2024-02-15T02:09:35;13.90;99.90
46400;DHT22;32104;50.838;4.388;2024-02-15T02:12:03;13.90;99.90
46400;DHT22;32104;50.838;4.388;2024-02-15T02:14:32;14.00;99.90
46400;DHT22;32104;50.838;4.388;2024-02-15T02:17:11;14.10;99.90
46400;DHT22;32104;50.838;4.388;2024-02-15T02:19:41;14.00;99.90
46400;DHT22;32104;50.838;4.388;2024-02-15T02:22:09;14.00;99.90
46400;DHT22;32104;50.838;4.388;2024-02-15T02:25:03;14.00;99.90
46400;DHT22;32104;50.838;4.388;2024-02-15T02:27:36;13.90;99.90
46400;DHT22;32104;50.838;4.388;2024-02-15T02:30:11;14.00;99.90
46400;DHT22;32104;50.838;4.388;2024-02-15T02:32:48;13.90;99.90
46400;DHT22;32104;50.838;4.388;2024-02-15T02:35:14;13.80;99.90
46400;DHT22;32104;50.838;4.388;2024-02-15T02:37:42;13.90;99.90
46400;DHT22;32104;50.838;4.388;2024-02-15T02:40:09;13.90;99.90
46400;DHT22;32104;50.838;4.388;2024-02-15T02:42:36;14.10;99.90
46400;DHT22;32104;50.838;4.388;2024-02-15T02:45:12;14.10;99.90
46400;DHT22;32104;50.838;4.388;2024-02-15T02:47:41;14.00;99.90
46400;DHT22;32104;50.838;4.388;2024-02-15T02:50:07;14.00;99.90
46400;DHT22;32104;50.838;4.388;2024-02-15T02:52:35;13.90;99.90
46400;DHT22;32104;50.838;4.388;2024-02-15T02:55:06;14.00;99.90
46400;DHT22;32104;50.838;4.388;2024-02-15T02:57:38;14.00;99.90
46400;DHT22;32104;50.838;4.388;2024-02-15T03:00:06;14.10;99.90
46400;DHT22;32104;50.838;4.388;2024-02-15T03:02:39;14.00;99.90
46400;DHT22;32104;50.838;4.388;2024-02-15T03:05:05;13.80;99.90
46400;DHT22;32104;50.838;4.388;2024-02-15T03:07:33;13.80;99.90
46400;DHT22;32104;50.838;4.388;2024-02-15T03:10:05;13.80;99.90
46400;DHT22;32104;50.838;4.388;2024-02-15T03:12:36;13.80;99.90
46400;DHT22;32104;50.838;4.388;2024-02-15T03:15:07;13.80;99.90
46400;DHT22;32104;50.838;4.388;2024-02-15T03:17:46;13.80;99.90
46400;DHT22;32104;50.838;4.388;2024-02-15T03:20:25;13.70;99.90
46400;DHT22;32104;50.838;4.388;2024-02-15T03:25:19;13.60;99.90
46400;DHT22;32104;50.838;4.388;2024-02-15T03:27:45;13.70;99.90
46400;DHT22;32104;50.838;4.388;2024-02-15T03:30:11;13.70;99.90
46400;DHT22;32104;50.838;4.388;2024-02-15T03:32:37;13.60;99.90
46400;DHT22;32104;50.838;4.388;2024-02-15T03:35:06;13.70;99.90
46400;DHT22;32104;50.838;4.388;2024-02-15T03:37:32;13.60;99.90
46400;DHT22;32104;50.838;4.388;2024-02-15T03:40:00;13.90;99.90
46400;DHT22;32104;50.838;4.388;2024-02-15T03:42:26;13.80;99.90
46400;DHT22;32104;50.838;4.388;2024-02-15T03:44:56;13.70;99.90
46400;DHT22;32104;50.838;4.388;2024-02-15T03:47:22;13.80;99.90
46400;DHT22;32104;50.838;4.388;2024-02-15T03:49:48;13.80;99.90
46400;DHT22;32104;50.838;4.388;2024-02-15T03:52:14;13.80;99.90
46400;DHT22;32104;50.838;4.388;2024-02-15T03:54:40;13.90;99.90
46400;DHT22;32104;50.838;4.388;2024-02-15T03:57:08;13.90;99.90
46400;DHT22;32104;50.838;4.388;2024-02-15T03:59:34;13.90;99.90
46400;DHT22;32104;50.838;4.388;2024-02-15T04:02:02;13.90;99.90
46400;DHT22;32104;50.838;4.388;2024-02-15T04:04:30;13.80;99.90
46400;DHT22;32104;50.838;4.388;2024-02-15T04:06:59;13.80;99.90
46400;DHT22;32104;50.838;4.388;2024-02-15T04:09:26;13.70;99.90
46400;DHT22;32104;50.838;4.388;2024-02-15T04:11:52;13.60;99.90
46400;DHT22;32104;50.838;4.388;2024-02-15T04:14:22;13.50;99.90
46400;DHT22;32104;50.838;4.388;2024-02-15T04:16:50;13.50;99.90
46400;DHT22;32104;50.838;4.388;2024-02-15T04:19:16;13.50;99.90
46400;DHT22;32104;50.838;4.388;2024-02-15T04:21:45;13.40;99.90
46400;DHT22;32104;50.838;4.388;2024-02-15T04:24:13;13.40;99.90
46400;DHT22;32104;50.838;4.388;2024-02-15T04:26:44;13.30;99.90
46400;DHT22;32104;50.838;4.388;2024-02-15T04:29:13;13.30;99.90
46400;DHT22;32104;50.838;4.388;2024-02-15T04:31:42;13.30;99.90
46400;DHT22;32104;50.838;4.388;2024-02-15T04:34:08;13.30;99.90
46400;DHT22;32104;50.838;4.388;2024-02-15T04:36:36;13.30;99.90
46400;DHT22;32104;50.838;4.388;2024-02-15T04:39:02;13.30;99.90
46400;DHT22;32104;50.838;4.388;2024-02-15T04:41:28;13.30;99.90
46400;DHT22;32104;50.838;4.388;2024-02-15T04:43:56;13.40;99.90
46400;DHT22;32104;50.838;4.388;2024-02-15T04:46:22;13.30;99.90
46400;DHT22;32104;50.838;4.388;2024-02-15T04:48:52;13.20;99.90
46400;DHT22;32104;50.838;4.388;2024-02-15T04:51:19;13.20;99.90
46400;DHT22;32104;50.838;4.388;2024-02-15T04:53:46;13.20;99.90
46400;DHT22;32104;50.838;4.388;2024-02-15T04:56:15;13.20;99.90
46400;DHT22;32104;50.838;4.388;2024-02-15T04:58:42;13.20;99.90
46400;DHT22;32104;50.838;4.388;2024-02-15T05:01:13;13.30;99.90
46400;DHT22;32104;50.838;4.388;2024-02-15T05:03:41;13.40;99.90
46400;DHT22;32104;50.838;4.388;2024-02-15T05:06:07;13.40;99.90
46400;DHT22;32104;50.838;4.388;2024-02-15T05:08:34;13.40;99.90
46400;DHT22;32104;50.838;4.388;2024-02-15T05:11:08;13.40;99.90
46400;DHT22;32104;50.838;4.388;2024-02-15T05:13:40;13.40;99.90
46400;DHT22;32104;50.838;4.388;2024-02-15T05:16:06;13.30;99.90
46400;DHT22;32104;50.838;4.388;2024-02-15T05:18:34;13.40;99.90
46400;DHT22;32104;50.838;4.388;2024-02-15T05:21:04;13.60;99.90
46400;DHT22;32104;50.838;4.388;2024-02-15T05:23:30;13.70;99.90
46400;DHT22;32104;50.838;4.388;2024-02-15T05:25:56;13.50;99.90
46400;DHT22;32104;50.838;4.388;2024-02-15T05:28:23;13.50;99.90
46400;DHT22;32104;50.838;4.388;2024-02-15T05:31:13;13.60;99.90
46400;DHT22;32104;50.838;4.388;2024-02-15T05:33:42;13.60;99.90
46400;DHT22;32104;50.838;4.388;2024-02-15T05:36:16;13.60;99.90
46400;DHT22;32104;50.838;4.388;2024-02-15T05:38:51;13.70;99.90
46400;DHT22;32104;50.838;4.388;2024-02-15T05:41:17;13.70;99.90
46400;DHT22;32104;50.838;4.388;2024-02-15T05:43:45;13.70;99.90
46400;DHT22;32104;50.838;4.388;2024-02-15T05:46:14;13.80;99.90
46400;DHT22;32104;50.838;4.388;2024-02-15T05:48:40;13.90;99.90
46400;DHT22;32104;50.838;4.388;2024-02-15T05:51:07;13.90;99.90
46400;DHT22;32104;50.838;4.388;2024-02-15T05:53:34;14.00;99.90
46400;DHT22;32104;50.838;4.388;2024-02-15T05:56:07;14.00;99.90
46400;DHT22;32104;50.838;4.388;2024-02-15T05:58:34;14.00;99.90
46400;DHT22;32104;50.838;4.388;2024-02-15T06:01:02;14.00;99.90
46400;DHT22;32104;50.838;4.388;2024-02-15T06:03:38;14.00;99.90
46400;DHT22;32104;50.838;4.388;2024-02-15T06:06:17;14.00;99.90
46400;DHT22;32104;50.838;4.388;2024-02-15T06:08:46;14.10;99.90
46400;DHT22;32104;50.838;4.388;2024-02-15T06:11:23;14.10;99.90
46400;DHT22;32104;50.838;4.388;2024-02-15T06:13:49;13.90;99.90
46400;DHT22;32104;50.838;4.388;2024-02-15T06:16:15;13.90;99.90
46400;DHT22;32104;50.838;4.388;2024-02-15T06:18:44;14.00;99.90
46400;DHT22;32104;50.838;4.388;2024-02-15T06:21:12;14.00;99.90
46400;DHT22;32104;50.838;4.388;2024-02-15T06:23:38;14.00;99.90
46400;DHT22;32104;50.838;4.388;2024-02-15T06:26:04;14.10;99.90
46400;DHT22;32104;50.838;4.388;2024-02-15T06:28:32;14.00;99.90
46400;DHT22;32104;50.838;4.388;2024-02-15T06:31:16;14.00;99.90
46400;DHT22;32104;50.838;4.388;2024-02-15T06:34:01;14.10;99.90
46400;DHT22;32104;50.838;4.388;2024-02-15T06:36:56;14.00;99.90
46400;DHT22;32104;50.838;4.388;2024-02-15T06:39:40;14.00;99.90
46400;DHT22;32104;50.838;4.388;2024-02-15T06:42:12;14.00;99.90
46400;DHT22;32104;50.838;4.388;2024-02-15T06:44:43;14.00;99.90
46400;DHT22;32104;50.838;4.388;2024-02-15T06:47:08;13.90;99.90
46400;DHT22;32104;50.838;4.388;2024-02-15T06:49:39;13.90;99.90
46400;DHT22;32104;50.838;4.388;2024-02-15T06:52:08;14.00;99.90
46400;DHT22;32104;50.838;4.388;2024-02-15T06:54:36;14.20;99.90
46400;DHT22;32104;50.838;4.388;2024-02-15T06:57:02;14.10;99.90
46400;DHT22;32104;50.838;4.388;2024-02-15T06:59:30;14.00;99.90
46400;DHT22;32104;50.838;4.388;2024-02-15T07:01:57;13.90;99.90
46400;DHT22;32104;50.838;4.388;2024-02-15T07:04:23;13.90;99.90
46400;DHT22;32104;50.838;4.388;2024-02-15T07:06:51;13.80;99.90
46400;DHT22;32104;50.838;4.388;2024-02-15T07:09:20;13.90;99.90
46400;DHT22;32104;50.838;4.388;2024-02-15T07:11:51;13.80;99.90
46400;DHT22;32104;50.838;4.388;2024-02-15T07:14:17;13.90;99.90
46400;DHT22;32104;50.838;4.388;2024-02-15T07:16:49;13.90;99.90
46400;DHT22;32104;50.838;4.388;2024-02-15T07:19:18;14.00;99.90
46400;DHT22;32104;50.838;4.388;2024-02-15T07:21:48;13.90;99.90
46400;DHT22;32104;50.838;4.388;2024-02-15T07:24:14;14.10;99.90
46400;DHT22;32104;50.838;4.388;2024-02-15T07:26:43;14.00;99.90
46400;DHT22;32104;50.838;4.388;2024-02-15T07:29:11;14.20;99.90
46400;DHT22;32104;50.838;4.388;2024-02-15T07:31:40;14.30;99.90
46400;DHT22;32104;50.838;4.388;2024-02-15T07:34:06;14.20;99.90
46400;DHT22;32104;50.838;4.388;2024-02-15T07:36:32;14.10;99.90
46400;DHT22;32104;50.838;4.388;2024-02-15T07:38:58;14.20;99.90
46400;DHT22;32104;50.838;4.388;2024-02-15T07:41:26;14.20;99.90
46400;DHT22;32104;50.838;4.388;2024-02-15T07:44:02;14.20;99.90
46400;DHT22;32104;50.838;4.388;2024-02-15T07:46:35;14.30;99.90
46400;DHT22;32104;50.838;4.388;2024-02-15T07:49:05;14.30;99.90
46400;DHT22;32104;50.838;4.388;2024-02-15T07:51:34;14.30;99.90
46400;DHT22;32104;50.838;4.388;2024-02-15T07:54:10;14.10;99.90
46400;DHT22;32104;50.838;4.388;2024-02-15T07:56:37;14.20;99.90
46400;DHT22;32104;50.838;4.388;2024-02-15T07:59:04;14.30;99.90
46400;DHT22;32104;50.838;4.388;2024-02-15T08:01:35;14.40;99.90
46400;DHT22;32104;50.838;4.388;2024-02-15T08:04:05;14.40;99.90
46400;DHT22;32104;50.838;4.388;2024-02-15T08:06:41;14.50;99.90
46400;DHT22;32104;50.838;4.388;2024-02-15T08:09:18;14.50;99.90
46400;DHT22;32104;50.838;4.388;2024-02-15T08:12:04;14.50;99.90
46400;DHT22;32104;50.838;4.388;2024-02-15T08:14:32;14.60;99.90
46400;DHT22;32104;50.838;4.388;2024-02-15T08:16:58;14.70;99.90
46400;DHT22;32104;50.838;4.388;2024-02-15T08:19:26;14.70;99.90
46400;DHT22;32104;50.838;4.388;2024-02-15T08:21:54;14.70;99.90
46400;DHT22;32104;50.838;4.388;2024-02-15T08:24:20;14.80;99.90
46400;DHT22;32104;50.838;4.388;2024-02-15T08:26:48;14.90;99.90
46400;DHT22;32104;50.838;4.388;2024-02-15T08:29:17;14.80;99.90
46400;DHT22;32104;50.838;4.388;2024-02-15T08:31:48;14.90;99.90
46400;DHT22;32104;50.838;4.388;2024-02-15T08:34:17;14.80;99.90
46400;DHT22;32104;50.838;4.388;2024-02-15T08:36:50;14.90;99.90
46400;DHT22;32104;50.838;4.388;2024-02-15T08:39:20;14.90;99.90
46400;DHT22;32104;50.838;4.388;2024-02-15T08:41:56;15.10;99.90
46400;DHT22;32104;50.838;4.388;2024-02-15T08:44:25;15.10;99.90
46400;DHT22;32104;50.838;4.388;2024-02-15T08:46:53;15.20;99.90
46400;DHT22;32104;50.838;4.388;2024-02-15T08:49:37;15.20;99.90
46400;DHT22;32104;50.838;4.388;2024-02-15T08:52:10;15.10;99.90
46400;DHT22;32104;50.838;4.388;2024-02-15T08:54:44;15.10;99.90
46400;DHT22;32104;50.838;4.388;2024-02-15T08:57:13;15.20;99.90
46400;DHT22;32104;50.838;4.388;2024-02-15T08:59:39;15.30;99.90
46400;DHT22;32104;50.838;4.388;2024-02-15T09:02:05;15.40;99.90
46400;DHT22;32104;50.838;4.388;2024-02-15T09:04:33;15.50;99.90
46400;DHT22;32104;50.838;4.388;2024-02-15T09:07:01;15.70;99.90
46400;DHT22;32104;50.838;4.388;2024-02-15T09:09:29;15.70;99.90
46400;DHT22;32104;50.838;4.388;2024-02-15T09:11:57;15.90;99.90
46400;DHT22;32104;50.838;4.388;2024-02-15T09:14:25;15.80;99.90
46400;DHT22;32104;50.838;4.388;2024-02-15T09:16:53;15.70;99.90
46400;DHT22;32104;50.838;4.388;2024-02-15T09:19:23;15.70;99.90
46400;DHT22;32104;50.838;4.388;2024-02-15T09:21:51;15.90;99.90
46400;DHT22;32104;50.838;4.388;2024-02-15T09:27:02;15.90;99.90
46400;DHT22;32104;50.838;4.388;2024-02-15T09:29:28;15.90;99.90
46400;DHT22;32104;50.838;4.388;2024-02-15T09:32:00;15.90;99.90
46400;DHT22;32104;50.838;4.388;2024-02-15T09:34:32;15.80;99.90
46400;DHT22;32104;50.838;4.388;2024-02-15T09:36:58;15.90;99.90
46400;DHT22;32104;50.838;4.388;2024-02-15T09:39:24;15.90;99.90
46400;DHT22;32104;50.838;4.388;2024-02-15T09:41:50;15.90;99.90
46400;DHT22;32104;50.838;4.388;2024-02-15T09:44:22;15.90;99.90
46400;DHT22;32104;50.838;4.388;2024-02-15T09:47:02;15.90;99.90
46400;DHT22;32104;50.838;4.388;2024-02-15T09:49:30;15.90;99.90
46400;DHT22;32104;50.838;4.388;2024-02-15T09:52:05;16.00;99.90
46400;DHT22;32104;50.838;4.388;2024-02-15T09:54:34;16.10;99.90
46400;DHT22;32104;50.838;4.388;2024-02-15T09:57:03;16.20;99.90
46400;DHT22;32104;50.838;4.388;2024-02-15T09:59:34;16.20;99.90
46400;DHT22;32104;50.838;4.388;2024-02-15T10:02:10;16.40;99.90
46400;DHT22;32104;50.838;4.388;2024-02-15T10:04:39;16.40;99.90
46400;DHT22;32104;50.838;4.388;2024-02-15T10:07:06;16.60;99.90
46400;DHT22;32104;50.838;4.388;2024-02-15T10:09:34;16.60;99.90
46400;DHT22;32104;50.838;4.388;2024-02-15T10:12:03;16.60;99.90
46400;DHT22;32104;50.838;4.388;2024-02-15T10:14:37;16.80;99.90
46400;DHT22;32104;50.838;4.388;2024-02-15T10:17:08;16.80;99.90
46400;DHT22;32104;50.838;4.388;2024-02-15T10:19:40;16.80;99.90
46400;DHT22;32104;50.838;4.388;2024-02-15T10:22:10;16.80;99.90
46400;DHT22;32104;50.838;4.388;2024-02-15T10:24:43;16.80;99.90
46400;DHT22;32104;50.838;4.388;2024-02-15T10:27:26;16.80;99.90
46400;DHT22;32104;50.838;4.388;2024-02-15T10:30:06;16.80;99.90
46400;DHT22;32104;50.838;4.388;2024-02-15T10:32:43;16.80;99.90
46400;DHT22;32104;50.838;4.388;2024-02-15T10:35:23;16.90;99.90
46400;DHT22;32104;50.838;4.388;2024-02-15T10:37:51;17.00;99.90
46400;DHT22;32104;50.838;4.388;2024-02-15T10:40:19;16.90;99.90
46400;DHT22;32104;50.838;4.388;2024-02-15T10:42:54;16.80;99.90
46400;DHT22;32104;50.838;4.388;2024-02-15T10:45:22;16.90;99.90
46400;DHT22;32104;50.838;4.388;2024-02-15T10:47:48;16.90;99.90
46400;DHT22;32104;50.838;4.388;2024-02-15T10:50:17;17.00;99.90
46400;DHT22;32104;50.838;4.388;2024-02-15T10:53:21;17.10;99.90
46400;DHT22;32104;50.838;4.388;2024-02-15T10:55:57;17.40;99.90
46400;DHT22;32104;50.838;4.388;2024-02-15T10:58:29;17.40;99.90
46400;DHT22;32104;50.838;4.388;2024-02-15T11:01:01;17.40;99.90
46400;DHT22;32104;50.838;4.388;2024-02-15T11:03:51;17.50;99.90
46400;DHT22;32104;50.838;4.388;2024-02-15T11:06:28;17.50;99.90
46400;DHT22;32104;50.838;4.388;2024-02-15T11:08:59;17.40;99.90
46400;DHT22;32104;50.838;4.388;2024-02-15T11:11:32;17.30;99.90
46400;DHT22;32104;50.838;4.388;2024-02-15T11:14:30;17.10;99.90
46400;DHT22;32104;50.838;4.388;2024-02-15T11:17:01;17.10;99.90
46400;DHT22;32104;50.838;4.388;2024-02-15T11:22:15;17.40;99.90
46400;DHT22;32104;50.838;4.388;2024-02-15T11:24:54;17.40;99.90
46400;DHT22;32104;50.838;4.388;2024-02-15T11:27:30;17.50;99.90
46400;DHT22;32104;50.838;4.388;2024-02-15T11:30:07;17.70;99.90
46400;DHT22;32104;50.838;4.388;2024-02-15T11:32:50;17.70;99.90
46400;DHT22;32104;50.838;4.388;2024-02-15T11:35:26;17.60;99.90
46400;DHT22;32104;50.838;4.388;2024-02-15T11:37:58;17.70;99.90
46400;DHT22;32104;50.838;4.388;2024-02-15T11:40:27;17.70;99.90
46400;DHT22;32104;50.838;4.388;2024-02-15T11:42:55;17.70;99.90
46400;DHT22;32104;50.838;4.388;2024-02-15T11:45:37;17.70;99.90
46400;DHT22;32104;50.838;4.388;2024-02-15T11:48:07;17.70;99.90
46400;DHT22;32104;50.838;4.388;2024-02-15T11:50:37;17.60;99.90
46400;DHT22;32104;50.838;4.388;2024-02-15T11:53:08;17.70;99.90
46400;DHT22;32104;50.838;4.388;2024-02-15T11:55:47;17.80;99.90
46400;DHT22;32104;50.838;4.388;2024-02-15T11:58:19;17.70;99.90
46400;DHT22;32104;50.838;4.388;2024-02-15T12:00:59;17.60;99.90
46400;DHT22;32104;50.838;4.388;2024-02-15T12:03:43;17.60;99.90
46400;DHT22;32104;50.838;4.388;2024-02-15T12:06:30;17.50;99.90
46400;DHT22;32104;50.838;4.388;2024-02-15T12:09:18;17.50;99.90
46400;DHT22;32104;50.838;4.388;2024-02-15T12:12:06;17.60;99.90
46400;DHT22;32104;50.838;4.388;2024-02-15T12:14:57;17.50;99.90
46400;DHT22;32104;50.838;4.388;2024-02-15T12:17:46;17.40;99.90
46400;DHT22;32104;50.838;4.388;2024-02-15T12:20:31;17.60;99.90
46400;DHT22;32104;50.838;4.388;2024-02-15T12:23:06;17.60;99.90
46400;DHT22;32104;50.838;4.388;2024-02-15T12:25:32;17.80;99.90
46400;DHT22;32104;50.838;4.388;2024-02-15T12:28:00;17.70;99.90
46400;DHT22;32104;50.838;4.388;2024-02-15T12:30:33;17.60;99.90
46400;DHT22;32104;50.838;4.388;2024-02-15T12:33:14;17.60;99.90
46400;DHT22;32104;50.838;4.388;2024-02-15T12:35:48;17.70;99.90
46400;DHT22;32104;50.838;4.388;2024-02-15T12:38:21;17.80;99.90
46400;DHT22;32104;50.838;4.388;2024-02-15T12:40:49;17.90;99.90
46400;DHT22;32104;50.838;4.388;2024-02-15T12:43:15;17.90;99.90
46400;DHT22;32104;50.838;4.388;2024-02-15T12:45:58;17.80;99.90
46400;DHT22;32104;50.838;4.388;2024-02-15T12:48:25;17.90;99.90
46400;DHT22;32104;50.838;4.388;2024-02-15T12:53:52;17.90;99.90
46400;DHT22;32104;50.838;4.388;2024-02-15T12:56:21;18.10;99.90
46400;DHT22;32104;50.838;4.388;2024-02-15T12:58:47;18.30;99.90
46400;DHT22;32104;50.838;4.388;2024-02-15T13:01:13;18.40;99.90
46400;DHT22;32104;50.838;4.388;2024-02-15T13:03:40;18.50;99.90
46400;DHT22;32104;50.838;4.388;2024-02-15T13:06:08;18.60;99.90
46400;DHT22;32104;50.838;4.388;2024-02-15T13:08:35;18.70;99.90
46400;DHT22;32104;50.838;4.388;2024-02-15T13:11:01;18.70;99.90
46400;DHT22;32104;50.838;4.388;2024-02-15T13:13:28;18.80;99.90
46400;DHT22;32104;50.838;4.388;2024-02-15T13:15:56;18.90;99.90
46400;DHT22;32104;50.838;4.388;2024-02-15T13:18:26;18.70;99.90
46400;DHT22;32104;50.838;4.388;2024-02-15T13:20:53;18.60;99.90
46400;DHT22;32104;50.838;4.388;2024-02-15T13:23:20;18.70;99.90
46400;DHT22;32104;50.838;4.388;2024-02-15T13:25:53;18.90;99.90
46400;DHT22;32104;50.838;4.388;2024-02-15T13:28:22;18.90;99.90
46400;DHT22;32104;50.838;4.388;2024-02-15T13:30:50;19.00;99.90
46400;DHT22;32104;50.838;4.388;2024-02-15T13:33:19;19.10;99.90
46400;DHT22;32104;50.838;4.388;2024-02-15T13:35:46;19.20;99.90
46400;DHT22;32104;50.838;4.388;2024-02-15T13:38:18;19.20;99.90
46400;DHT22;32104;50.838;4.388;2024-02-15T13:41:06;19.30;99.90
46400;DHT22;32104;50.838;4.388;2024-02-15T13:43:34;19.10;99.90
46400;DHT22;32104;50.838;4.388;2024-02-15T13:46:07;19.00;99.90
46400;DHT22;32104;50.838;4.388;2024-02-15T13:48:40;19.10;99.90
46400;DHT22;32104;50.838;4.388;2024-02-15T13:51:09;19.10;99.90
46400;DHT22;32104;50.838;4.388;2024-02-15T13:53:40;19.20;99.90
46400;DHT22;32104;50.838;4.388;2024-02-15T13:56:15;19.10;99.90
46400;DHT22;32104;50.838;4.388;2024-02-15T13:58:44;19.00;99.90
46400;DHT22;32104;50.838;4.388;2024-02-15T14:01:10;18.90;99.90
46400;DHT22;32104;50.838;4.388;2024-02-15T14:03:41;18.90;99.90
46400;DHT22;32104;50.838;4.388;2024-02-15T14:06:13;18.70;99.90
46400;DHT22;32104;50.838;4.388;2024-02-15T14:08:43;18.40;99.90
46400;DHT22;32104;50.838;4.388;2024-02-15T14:11:09;18.50;99.90
46400;DHT22;32104;50.838;4.388;2024-02-15T14:13:36;18.30;99.90
46400;DHT22;32104;50.838;4.388;2024-02-15T14:16:05;18.10;99.90
46400;DHT22;32104;50.838;4.388;2024-02-15T14:18:33;18.10;99.90
46400;DHT22;32104;50.838;4.388;2024-02-15T14:21:00;18.00;99.90
46400;DHT22;32104;50.838;4.388;2024-02-15T14:23:31;18.00;99.90
46400;DHT22;32104;50.838;4.388;2024-02-15T14:25:56;17.90;99.90
46400;DHT22;32104;50.838;4.388;2024-02-15T14:28:25;18.00;99.90
46400;DHT22;32104;50.838;4.388;2024-02-15T14:30:51;18.20;99.90
46400;DHT22;32104;50.838;4.388;2024-02-15T14:33:35;18.10;99.90
46400;DHT22;32104;50.838;4.388;2024-02-15T14:36:04;18.20;99.90
46400;DHT22;32104;50.838;4.388;2024-02-15T14:38:31;18.00;99.90
46400;DHT22;32104;50.838;4.388;2024-02-15T14:41:00;17.90;99.90
46400;DHT22;32104;50.838;4.388;2024-02-15T14:43:30;18.00;99.90
46400;DHT22;32104;50.838;4.388;2024-02-15T14:45:56;18.10;99.90
46400;DHT22;32104;50.838;4.388;2024-02-15T14:48:27;18.30;99.90
46400;DHT22;32104;50.838;4.388;2024-02-15T14:50:55;18.30;99.90
46400;DHT22;32104;50.838;4.388;2024-02-15T14:53:28;18.20;99.90
46400;DHT22;32104;50.838;4.388;2024-02-15T14:55:59;18.10;99.90
46400;DHT22;32104;50.838;4.388;2024-02-15T14:58:27;18.00;99.90
46400;DHT22;32104;50.838;4.388;2024-02-15T15:00:53;18.20;99.90
46400;DHT22;32104;50.838;4.388;2024-02-15T15:03:19;18.20;99.90
46400;DHT22;32104;50.838;4.388;2024-02-15T15:05:51;18.30;99.90
46400;DHT22;32104;50.838;4.388;2024-02-15T15:08:35;18.10;99.90
46400;DHT22;32104;50.838;4.388;2024-02-15T15:11:22;18.00;99.90
46400;DHT22;32104;50.838;4.388;2024-02-15T15:14:06;18.10;99.90
46400;DHT22;32104;50.838;4.388;2024-02-15T15:16:34;17.80;99.90
46400;DHT22;32104;50.838;4.388;2024-02-15T15:19:00;17.70;99.90
46400;DHT22;32104;50.838;4.388;2024-02-15T15:21:29;17.70;99.90
46400;DHT22;32104;50.838;4.388;2024-02-15T15:24:00;17.90;99.90
46400;DHT22;32104;50.838;4.388;2024-02-15T15:26:28;17.80;99.90
46400;DHT22;32104;50.838;4.388;2024-02-15T15:29:02;17.70;99.90
46400;DHT22;32104;50.838;4.388;2024-02-15T15:31:30;17.70;99.90
46400;DHT22;32104;50.838;4.388;2024-02-15T15:34:05;17.60;99.90
46400;DHT22;32104;50.838;4.388;2024-02-15T15:36:32;17.60;99.90
46400;DHT22;32104;50.838;4.388;2024-02-15T15:38:58;17.50;99.90
46400;DHT22;32104;50.838;4.388;2024-02-15T15:41:27;17.40;99.90
46400;DHT22;32104;50.838;4.388;2024-02-15T15:43:53;17.20;99.90
46400;DHT22;32104;50.838;4.388;2024-02-15T15:46:19;17.20;99.90
46400;DHT22;32104;50.838;4.388;2024-02-15T15:48:45;17.10;99.90
46400;DHT22;32104;50.838;4.388;2024-02-15T15:51:15;17.00;99.90
46400;DHT22;32104;50.838;4.388;2024-02-15T15:53:41;16.90;99.90
46400;DHT22;32104;50.838;4.388;2024-02-15T15:56:07;16.90;99.90
46400;DHT22;32104;50.838;4.388;2024-02-15T15:58:39;16.80;99.90
46400;DHT22;32104;50.838;4.388;2024-02-15T16:01:12;16.60;99.90
46400;DHT22;32104;50.838;4.388;2024-02-15T16:03:47;16.60;99.90